Weather at Tomelilla Airfield [CLOSED]

Public forecast

Using degrees Celsius for public forecast. Weather courtesy of forecast.io.

Closest aviation weather report (METAR) to Tomelilla Airfield

Closest report is Malmö Sturup Airport, 22.0 nm (40.7 km) W.

2024/05/18 22:50 (retrieved 21 minutes ago)

ESMS 182250Z 08009KT CAVOK 14/04 Q1012

Closest aviation forecast (TAF) to Tomelilla Airfield

Closest forecast is Malmö Sturup Airport, 22.0 nm (40.7 km) W.

2024/05/18 21:36 (retrieved 2 hours ago)

TAF ESMS 182009Z 1821/1921 07008KT CAVOK PROB40 1906/1910 SCT050CB TEMPO 1910/1915 SHRA SCT050CB